Time;durP1;ratioP1;P1;durP2;ratioP2;P2;SDS_P1;SDS_P2;PMS_P1;PMS_P2;Temp;Humidity;BMP_temperature;BMP_pressure;BME280_temperature;BME280_humidity;BME280_pressure;Samples;Min_cycle;Max_cycle;Signal;HPM_P1;HPM_P2
2022/08/01 00:00:01;;;;;;;1.73;1.63;;;22.90;52.60;;;;;;5029388;28;20039;-71
2022/08/01 00:02:27;;;;;;;1.58;1.48;;;22.80;52.70;;;;;;5052309;28;20045;-72
2022/08/01 00:04:56;;;;;;;2.28;1.65;;;22.80;53.10;;;;;;5041281;28;20126;-73
2022/08/01 00:07:21;;;;;;;3.17;1.55;;;22.80;53.00;;;;;;5045606;28;20031;-72
2022/08/01 00:09:47;;;;;;;1.70;1.60;;;22.70;52.90;;;;;;5044002;28;20102;-72
2022/08/01 00:12:12;;;;;;;1.77;1.67;;;22.70;53.00;;;;;;5051799;28;20077;-72
2022/08/01 00:14:38;;;;;;;2.97;1.67;;;22.70;53.00;;;;;;5039877;28;20142;-72
2022/08/01 00:17:03;;;;;;;1.42;1.33;;;22.70;53.10;;;;;;5015104;28;20154;-73
2022/08/01 00:19:29;;;;;;;3.40;1.73;;;22.70;53.20;;;;;;5019399;28;20115;-72
2022/08/01 00:21:54;;;;;;;1.85;1.60;;;22.70;53.20;;;;;;5048333;28;20504;-72
2022/08/01 00:24:20;;;;;;;2.80;1.50;;;22.60;53.30;;;;;;5053455;28;20046;-72
2022/08/01 00:26:45;;;;;;;1.50;1.40;;;22.60;53.30;;;;;;5041213;28;20033;-72
2022/08/01 00:29:11;;;;;;;1.55;1.40;;;22.60;53.40;;;;;;5035917;28;20071;-73
2022/08/01 00:31:36;;;;;;;2.35;1.88;;;22.60;53.50;;;;;;5031456;28;20081;-74
2022/08/01 00:34:02;;;;;;;1.60;1.50;;;22.60;53.70;;;;;;5037737;28;20029;-73
2022/08/01 00:36:27;;;;;;;1.40;1.30;;;22.50;53.60;;;;;;5026702;28;20025;-73
2022/08/01 00:38:53;;;;;;;1.83;1.50;;;22.50;53.70;;;;;;5019564;28;20070;-73
2022/08/01 00:41:18;;;;;;;1.88;1.60;;;22.50;53.90;;;;;;5061315;28;20050;-74
2022/08/01 00:43:44;;;;;;;1.67;1.58;;;22.50;53.90;;;;;;5016704;28;20093;-72
2022/08/01 00:46:09;;;;;;;2.92;1.58;;;22.40;54.00;;;;;;5027719;28;20182;-72
2022/08/01 00:48:35;;;;;;;1.83;1.55;;;22.40;54.10;;;;;;5031536;28;20030;-72
2022/08/01 00:51:02;;;;;;;1.83;1.58;;;22.40;54.10;;;;;;5004623;28;20037;-74
2022/08/01 00:53:27;;;;;;;1.50;1.40;;;22.40;54.30;;;;;;5037934;28;20051;-73
2022/08/01 00:55:53;;;;;;;2.65;1.50;;;22.30;54.30;;;;;;5027848;28;20052;-73
2022/08/01 00:58:18;;;;;;;1.98;1.40;;;22.30;54.50;;;;;;5020871;28;20054;-73
2022/08/01 01:00:44;;;;;;;2.25;1.25;;;22.30;54.60;;;;;;5037655;28;20059;-73
2022/08/01 01:03:09;;;;;;;1.20;1.10;;;22.20;54.50;;;;;;5045484;28;20063;-73
2022/08/01 01:05:40;;;;;;;3.25;1.45;;;22.20;54.60;;;;;;5040013;28;20028;-74
2022/08/01 01:08:09;;;;;;;3.45;1.80;;;22.20;54.70;;;;;;5022592;28;20040;-72
2022/08/01 01:10:48;;;;;;;1.42;1.33;;;22.10;54.90;;;;;;5008934;28;20041;-73
2022/08/01 01:13:21;;;;;;;3.22;1.50;;;22.10;55.10;;;;;;5015455;28;20104;-73
2022/08/01 01:15:55;;;;;;;3.13;1.55;;;22.10;55.20;;;;;;5031621;28;20038;-73
2022/08/01 01:18:28;;;;;;;2.00;1.48;;;22.00;55.30;;;;;;5041543;28;20119;-73
2022/08/01 01:21:18;;;;;;;1.60;1.50;;;22.00;55.30;;;;;;5033068;28;20102;-73
2022/08/01 01:24:24;;;;;;;2.65;1.70;;;21.90;55.70;;;;;;5045841;28;20028;-73
2022/08/01 01:27:06;;;;;;;2.22;1.30;;;21.90;55.80;;;;;;5072878;28;20087;-72
2022/08/01 01:29:35;;;;;;;1.50;1.40;;;21.90;55.60;;;;;;5036695;28;20055;-72
2022/08/01 01:32:06;;;;;;;1.70;1.27;;;21.90;55.70;;;;;;5004356;28;20041;-73
2022/08/01 01:34:34;;;;;;;1.70;1.55;;;21.80;55.70;;;;;;5026414;28;20059;-73
2022/08/01 01:36:59;;;;;;;4.20;1.52;;;21.80;55.80;;;;;;5024788;28;20112;-72
2022/08/01 01:39:26;;;;;;;1.77;1.50;;;21.80;56.00;;;;;;5007358;28;20043;-72
2022/08/01 01:41:51;;;;;;;3.00;1.60;;;21.70;56.00;;;;;;5032582;28;20036;-72
2022/08/01 01:44:17;;;;;;;2.08;1.50;;;21.70;56.20;;;;;;5035357;28;20038;-73
2022/08/01 01:46:42;;;;;;;3.92;1.65;;;21.70;56.20;;;;;;4999443;28;20429;-72
2022/08/01 01:49:10;;;;;;;2.72;1.77;;;21.60;56.30;;;;;;5015064;28;20098;-73
2022/08/01 01:51:35;;;;;;;2.13;1.30;;;21.60;56.40;;;;;;5035301;28;20436;-72
2022/08/01 01:54:01;;;;;;;1.80;1.60;;;21.60;56.50;;;;;;5019717;28;20473;-73
2022/08/01 01:56:26;;;;;;;2.95;1.77;;;21.50;56.60;;;;;;5041551;28;20025;-73
2022/08/01 01:58:54;;;;;;;2.05;1.55;;;21.50;56.70;;;;;;5011301;28;20029;-73
2022/08/01 02:01:21;;;;;;;4.10;1.40;;;21.40;56.80;;;;;;5031044;28;20210;-73
2022/08/01 02:03:48;;;;;;;1.48;1.25;;;21.40;56.90;;;;;;5031328;28;20048;-73
2022/08/01 02:06:14;;;;;;;1.83;1.30;;;21.40;56.90;;;;;;5020898;28;20035;-72
2022/08/01 02:08:39;;;;;;;3.17;2.00;;;21.30;57.10;;;;;;5023290;28;20032;-73
2022/08/01 02:11:20;;;;;;;4.05;1.75;;;21.30;57.20;;;;;;5059030;28;20134;-72
2022/08/01 02:13:59;;;;;;;3.00;1.67;;;21.30;57.40;;;;;;5025129;28;20532;-74
2022/08/01 02:16:26;;;;;;;2.17;1.33;;;21.20;57.90;;;;;;5024798;28;20045;-72
2022/08/01 02:18:51;;;;;;;1.77;1.25;;;21.20;58.30;;;;;;5053883;28;20036;-73
2022/08/01 02:21:29;;;;;;;1.73;1.50;;;21.20;57.80;;;;;;5041478;28;20029;-74
2022/08/01 02:23:57;;;;;;;1.50;1.40;;;21.10;58.10;;;;;;5059413;28;20135;-73
2022/08/01 02:26:22;;;;;;;2.92;1.60;;;21.10;58.00;;;;;;5032758;28;20033;-73
2022/08/01 02:28:54;;;;;;;2.47;1.25;;;21.00;58.10;;;;;;5009198;28;20032;-73
2022/08/01 02:31:21;;;;;;;1.75;1.65;;;21.00;58.60;;;;;;5032529;28;20036;-72
2022/08/01 02:33:59;;;;;;;6.00;1.50;;;20.90;58.60;;;;;;5008919;28;20064;-72
2022/08/01 02:36:26;;;;;;;1.70;1.40;;;20.90;59.00;;;;;;5041605;28;20064;-74
2022/08/01 02:38:51;;;;;;;4.60;1.60;;;20.90;59.10;;;;;;5001237;28;20047;-75
2022/08/01 02:41:19;;;;;;;1.80;1.25;;;20.90;59.20;;;;;;5007583;28;23095;-74
2022/08/01 02:43:47;;;;;;;2.60;1.40;;;20.80;59.40;;;;;;5020338;28;20094;-74
2022/08/01 02:46:17;;;;;;;2.78;1.70;;;20.80;59.50;;;;;;5014220;28;20045;-74
2022/08/01 02:48:42;;;;;;;1.70;1.48;;;20.80;59.70;;;;;;4976971;28;20032;-75
2022/08/01 02:51:08;;;;;;;1.55;1.42;;;20.80;59.70;;;;;;5002317;28;20588;-74
2022/08/01 02:53:36;;;;;;;2.15;1.50;;;20.70;59.70;;;;;;5008710;28;20047;-74
2022/08/01 02:56:03;;;;;;;6.00;1.33;;;20.70;59.80;;;;;;4999012;28;20051;-75
2022/08/01 02:58:29;;;;;;;3.13;1.50;;;20.70;59.90;;;;;;5016381;28;20052;-74
2022/08/01 03:00:55;;;;;;;2.35;1.42;;;20.70;60.00;;;;;;4993474;28;20038;-74
2022/08/01 03:03:21;;;;;;;2.53;1.40;;;20.70;60.10;;;;;;4991030;28;20045;-75
2022/08/01 03:05:46;;;;;;;2.85;1.30;;;20.60;60.30;;;;;;4980757;28;20033;-74
2022/08/01 03:08:13;;;;;;;3.08;1.48;;;20.60;60.30;;;;;;5028361;28;20673;-74
2022/08/01 03:10:39;;;;;;;1.40;1.30;;;20.60;60.40;;;;;;5008528;28;20054;-74
2022/08/01 03:13:06;;;;;;;1.92;1.50;;;20.60;60.50;;;;;;5025328;28;20099;-74
2022/08/01 03:15:33;;;;;;;2.10;1.50;;;20.50;60.50;;;;;;5022482;28;20033;-74
2022/08/01 03:17:59;;;;;;;2.65;1.70;;;20.50;61.30;;;;;;5002350;28;20037;-72
2022/08/01 03:20:24;;;;;;;1.83;1.67;;;20.50;60.60;;;;;;5000124;28;20043;-72
2022/08/01 03:22:52;;;;;;;2.45;1.70;;;20.40;60.70;;;;;;4992982;28;20116;-72
2022/08/01 03:25:18;;;;;;;1.60;1.50;;;20.40;60.70;;;;;;4985276;28;20141;-73
2022/08/01 03:27:44;;;;;;;3.33;1.60;;;20.40;61.00;;;;;;5010795;28;20127;-73
2022/08/01 03:30:10;;;;;;;1.60;1.50;;;20.40;61.20;;;;;;5032632;28;20051;-72
2022/08/01 03:32:35;;;;;;;1.80;1.70;;;20.40;61.20;;;;;;5012899;28;20036;-72
2022/08/01 03:35:01;;;;;;;1.50;1.40;;;20.40;61.30;;;;;;5040709;28;20037;-72
2022/08/01 03:37:32;;;;;;;2.28;1.63;;;20.30;61.30;;;;;;5025202;28;20036;-73
2022/08/01 03:40:00;;;;;;;4.15;1.98;;;20.30;61.60;;;;;;5030658;28;20060;-73
2022/08/01 03:42:32;;;;;;;2.13;1.70;;;20.30;61.50;;;;;;5038319;28;20033;-73
2022/08/01 03:44:59;;;;;;;2.35;1.67;;;20.30;61.80;;;;;;5025314;28;20111;-72
2022/08/01 03:47:29;;;;;;;1.75;1.52;;;20.20;61.70;;;;;;5029777;28;20037;-72
2022/08/01 03:49:54;;;;;;;2.38;1.25;;;20.20;61.80;;;;;;5028505;28;20461;-72
2022/08/01 03:52:20;;;;;;;1.75;1.33;;;20.20;61.80;;;;;;5022178;28;20565;-75
2022/08/01 03:54:47;;;;;;;2.83;1.80;;;20.10;61.90;;;;;;5039609;28;20503;-73
2022/08/01 03:57:13;;;;;;;1.98;1.40;;;20.10;61.90;;;;;;5058198;28;20513;-74
2022/08/01 03:59:38;;;;;;;1.48;1.38;;;20.10;62.10;;;;;;5020630;28;20043;-75
2022/08/01 04:02:04;;;;;;;1.45;1.35;;;20.10;62.10;;;;;;4994736;28;20497;-73
2022/08/01 04:04:30;;;;;;;1.73;1.45;;;20.00;62.10;;;;;;5026033;28;20537;-72
2022/08/01 04:06:55;;;;;;;1.90;1.45;;;20.00;62.20;;;;;;5006910;28;20039;-72
2022/08/01 04:09:21;;;;;;;1.65;1.50;;;20.00;62.30;;;;;;5018748;28;20041;-72
2022/08/01 04:11:47;;;;;;;2.20;1.50;;;20.00;62.30;;;;;;5025714;28;20065;-73
2022/08/01 04:14:12;;;;;;;1.92;1.30;;;19.90;62.40;;;;;;5040847;28;20035;-72
2022/08/01 04:16:38;;;;;;;1.77;1.55;;;19.90;62.50;;;;;;5024061;28;20043;-71
2022/08/01 04:19:07;;;;;;;4.15;1.38;;;19.90;62.50;;;;;;5030388;28;20042;-73
2022/08/01 04:21:32;;;;;;;1.40;1.30;;;19.90;62.70;;;;;;5014765;28;20037;-72
2022/08/01 04:24:00;;;;;;;1.30;1.17;;;19.90;62.80;;;;;;5018968;28;20126;-71
2022/08/01 04:26:26;;;;;;;1.33;1.23;;;19.90;63.10;;;;;;5037404;28;20496;-72
2022/08/01 04:28:51;;;;;;;1.50;1.25;;;19.90;63.00;;;;;;5011274;28;20057;-71
2022/08/01 04:31:17;;;;;;;3.40;1.63;;;19.80;63.10;;;;;;5042198;28;20040;-71
2022/08/01 04:33:45;;;;;;;2.15;1.30;;;19.80;63.20;;;;;;5024700;28;20036;-72
2022/08/01 04:36:11;;;;;;;5.75;2.13;;;19.80;63.30;;;;;;5011863;28;20046;-73
2022/08/01 04:38:37;;;;;;;1.75;1.60;;;19.80;63.40;;;;;;5022115;28;20028;-71
2022/08/01 04:41:06;;;;;;;3.08;1.30;;;19.80;63.50;;;;;;5022236;28;20033;-72
2022/08/01 04:43:32;;;;;;;1.58;1.20;;;19.80;63.80;;;;;;5020218;28;20036;-72
2022/08/01 04:45:57;;;;;;;2.35;1.38;;;19.70;63.80;;;;;;5040031;28;20044;-72
2022/08/01 04:48:24;;;;;;;1.73;1.38;;;19.70;63.90;;;;;;5027857;28;20075;-72
2022/08/01 04:50:49;;;;;;;2.50;1.35;;;19.80;63.90;;;;;;5029885;28;20093;-72
2022/08/01 04:53:16;;;;;;;1.40;1.30;;;19.80;64.10;;;;;;5047360;28;20076;-72
2022/08/01 04:55:43;;;;;;;2.22;1.30;;;19.80;64.20;;;;;;5034899;28;20047;-72
2022/08/01 04:58:10;;;;;;;1.40;1.25;;;19.80;64.30;;;;;;5026715;28;20162;-73
2022/08/01 05:00:35;;;;;;;1.90;1.30;;;19.80;64.50;;;;;;5022134;28;20032;-74
2022/08/01 05:03:01;;;;;;;1.90;1.40;;;19.80;64.70;;;;;;5021595;28;20085;-74
2022/08/01 05:05:26;;;;;;;2.38;1.40;;;19.80;64.70;;;;;;5041178;28;20066;-74
2022/08/01 05:07:52;;;;;;;2.13;1.52;;;19.80;64.80;;;;;;5032924;28;20635;-72
2022/08/01 05:10:17;;;;;;;1.70;1.35;;;19.90;65.00;;;;;;4996008;28;20143;-72
2022/08/01 05:12:43;;;;;;;2.08;1.58;;;19.90;65.10;;;;;;5028062;28;20150;-72
2022/08/01 05:15:08;;;;;;;2.17;1.30;;;19.90;65.20;;;;;;5053417;28;20043;-72
2022/08/01 05:17:34;;;;;;;1.73;1.50;;;19.90;65.30;;;;;;5034257;28;20028;-72
2022/08/01 05:19:59;;;;;;;1.48;1.38;;;20.00;65.40;;;;;;5021081;28;20128;-72
2022/08/01 05:22:25;;;;;;;3.67;1.45;;;20.00;65.60;;;;;;5041630;28;20040;-73
2022/08/01 05:24:52;;;;;;;1.83;1.40;;;20.10;65.70;;;;;;5025497;28;20075;-72
2022/08/01 05:27:18;;;;;;;1.70;1.58;;;20.10;65.90;;;;;;5042070;28;20040;-72
2022/08/01 05:29:43;;;;;;;2.08;1.30;;;20.10;66.00;;;;;;5045170;28;20032;-72
2022/08/01 05:32:09;;;;;;;1.52;1.42;;;20.20;66.10;;;;;;5050637;28;20040;-72
2022/08/01 05:34:34;;;;;;;1.20;1.10;;;20.20;66.10;;;;;;5047486;28;20039;-72
2022/08/01 05:37:00;;;;;;;3.30;1.40;;;20.20;65.90;;;;;;5033679;28;20095;-72
2022/08/01 05:39:25;;;;;;;1.42;1.08;;;20.30;66.10;;;;;;5022242;28;20123;-72
2022/08/01 05:41:51;;;;;;;3.97;2.00;;;20.30;65.90;;;;;;5048483;28;20108;-72
2022/08/01 05:44:17;;;;;;;2.25;1.80;;;20.40;65.90;;;;;;5043193;28;20094;-72
2022/08/01 05:46:42;;;;;;;4.53;1.83;;;20.40;65.80;;;;;;5040455;28;20033;-72
2022/08/01 05:49:08;;;;;;;2.20;1.80;;;20.50;65.90;;;;;;5078197;28;20028;-71
2022/08/01 05:51:33;;;;;;;2.85;1.30;;;20.50;65.80;;;;;;5058154;28;20027;-72
2022/08/01 05:53:59;;;;;;;2.33;1.27;;;20.60;65.80;;;;;;5038938;28;20033;-72
2022/08/01 05:56:24;;;;;;;2.60;1.48;;;20.70;65.90;;;;;;5040232;28;20024;-72
2022/08/01 05:58:50;;;;;;;2.55;1.60;;;20.80;66.00;;;;;;5048545;28;20167;-72
2022/08/01 06:01:16;;;;;;;3.25;1.50;;;20.90;66.10;;;;;;5074711;28;20505;-72
2022/08/01 06:03:42;;;;;;;2.20;1.48;;;20.90;66.00;;;;;;5078407;28;20742;-72
2022/08/01 06:06:07;;;;;;;2.88;1.20;;;21.10;66.10;;;;;;5061494;28;20111;-71
2022/08/01 06:08:33;;;;;;;2.38;1.30;;;21.20;66.00;;;;;;5043973;28;20036;-73
2022/08/01 06:10:58;;;;;;;2.15;1.30;;;21.30;65.80;;;;;;5062294;28;20063;-72
2022/08/01 06:13:24;;;;;;;2.88;1.60;;;21.40;65.60;;;;;;5025111;28;20535;-73
2022/08/01 06:15:50;;;;;;;1.70;1.50;;;21.60;65.40;;;;;;5032162;28;20612;-73
2022/08/01 06:18:15;;;;;;;2.28;1.30;;;21.70;65.20;;;;;;5041375;28;20155;-73
2022/08/01 06:20:41;;;;;;;3.10;1.30;;;21.80;64.90;;;;;;5040997;28;20029;-71
2022/08/01 06:23:06;;;;;;;1.55;1.20;;;21.90;64.80;;;;;;5013546;28;20049;-72
2022/08/01 06:25:33;;;;;;;1.40;1.20;;;21.90;64.50;;;;;;5043208;28;20040;-73
2022/08/01 06:27:58;;;;;;;2.33;1.35;;;22.00;64.40;;;;;;5041121;28;20060;-72
2022/08/01 06:30:24;;;;;;;5.18;1.48;;;22.10;64.30;;;;;;5031081;28;20039;-71
2022/08/01 06:32:49;;;;;;;3.35;1.63;;;22.20;64.00;;;;;;5030304;28;20053;-72
2022/08/01 06:35:15;;;;;;;4.18;1.38;;;22.20;63.90;;;;;;5004485;28;20049;-73
2022/08/01 06:37:41;;;;;;;1.92;1.70;;;22.20;63.70;;;;;;5030684;28;20031;-73
2022/08/01 06:40:08;;;;;;;1.58;1.48;;;22.30;63.70;;;;;;5015267;28;20032;-72
2022/08/01 06:42:37;;;;;;;1.73;1.60;;;22.20;63.60;;;;;;4998003;28;20071;-72
2022/08/01 06:45:07;;;;;;;1.70;1.60;;;22.30;63.60;;;;;;5022081;28;20110;-72
2022/08/01 06:47:32;;;;;;;4.40;1.90;;;22.30;63.50;;;;;;5012175;28;20057;-72
2022/08/01 06:49:58;;;;;;;1.80;1.70;;;22.30;63.50;;;;;;5041075;28;20158;-72
2022/08/01 06:52:23;;;;;;;2.50;1.60;;;22.30;63.40;;;;;;4993445;28;20122;-72
2022/08/01 06:54:49;;;;;;;3.55;2.00;;;22.40;63.50;;;;;;5032700;28;20044;-72
2022/08/01 06:57:14;;;;;;;4.32;2.33;;;22.40;63.50;;;;;;5014652;28;20040;-72
2022/08/01 06:59:40;;;;;;;4.15;1.95;;;22.40;63.40;;;;;;5021538;28;20169;-72
2022/08/01 07:02:06;;;;;;;2.70;2.50;;;22.40;63.30;;;;;;5001036;28;20455;-72
2022/08/01 07:04:32;;;;;;;2.85;2.50;;;22.50;63.30;;;;;;5022852;28;20501;-73
2022/08/01 07:06:57;;;;;;;4.25;2.45;;;22.50;63.20;;;;;;5013764;28;20045;-72
2022/08/01 07:09:23;;;;;;;3.80;2.65;;;22.50;63.10;;;;;;5006504;28;20032;-72
2022/08/01 07:11:50;;;;;;;2.40;2.10;;;22.50;63.10;;;;;;4996246;28;20020;-72
2022/08/01 07:14:15;;;;;;;2.88;2.35;;;22.60;63.00;;;;;;5017541;28;20052;-72
2022/08/01 07:16:41;;;;;;;4.13;2.30;;;22.60;63.00;;;;;;4999683;28;20036;-72
2022/08/01 07:19:07;;;;;;;6.57;2.80;;;22.60;62.90;;;;;;5013988;28;20479;-72
2022/08/01 07:21:33;;;;;;;2.85;2.00;;;22.60;62.90;;;;;;5018847;28;20040;-72
2022/08/01 07:23:58;;;;;;;3.65;2.35;;;22.70;62.80;;;;;;5006009;28;20082;-71
2022/08/01 07:26:24;;;;;;;5.38;2.70;;;22.80;62.70;;;;;;5057095;28;20440;-72
2022/08/01 07:28:49;;;;;;;5.28;2.20;;;22.90;62.70;;;;;;5060380;28;20040;-73
2022/08/01 07:31:15;;;;;;;4.63;2.67;;;23.00;62.60;;;;;;5064322;28;20039;-73
2022/08/01 07:33:40;;;;;;;6.10;2.40;;;23.10;62.40;;;;;;5039768;28;20032;-73
2022/08/01 07:36:06;;;;;;;7.28;2.60;;;23.40;62.20;;;;;;5046866;28;20039;-73
2022/08/01 07:38:32;;;;;;;4.05;2.20;;;23.50;61.90;;;;;;5037657;28;20111;-72
2022/08/01 07:40:57;;;;;;;7.82;2.10;;;23.80;61.60;;;;;;5046845;28;20039;-72
2022/08/01 07:43:23;;;;;;;2.92;1.90;;;24.00;61.20;;;;;;5041768;28;20063;-72
2022/08/01 07:45:48;;;;;;;2.42;2.15;;;24.20;60.70;;;;;;5033270;28;20063;-72
2022/08/01 07:48:14;;;;;;;5.05;2.00;;;24.40;60.20;;;;;;5007841;28;20384;-73
2022/08/01 07:50:39;;;;;;;2.95;2.00;;;24.60;59.70;;;;;;5039578;28;20056;-73
2022/08/01 07:53:05;;;;;;;2.05;1.92;;;24.80;59.30;;;;;;5051000;28;20884;-75
2022/08/01 07:55:30;;;;;;;3.88;2.03;;;24.90;58.80;;;;;;5063509;28;20699;-74
2022/08/01 07:57:56;;;;;;;2.28;2.08;;;25.10;58.50;;;;;;5049744;28;20125;-73
2022/08/01 08:00:22;;;;;;;3.17;1.70;;;25.30;58.30;;;;;;5053625;28;20091;-73
2022/08/01 08:02:47;;;;;;;1.80;1.70;;;25.50;57.90;;;;;;5044236;28;20044;-74
2022/08/01 08:05:13;;;;;;;3.15;1.67;;;25.70;57.40;;;;;;5034021;28;20022;-74
2022/08/01 08:07:38;;;;;;;1.50;1.40;;;25.80;57.00;;;;;;5061898;28;20024;-73
2022/08/01 08:10:05;;;;;;;1.55;1.45;;;26.00;56.80;;;;;;5038910;28;20036;-73
2022/08/01 08:12:31;;;;;;;2.35;1.80;;;26.10;56.50;;;;;;5019234;28;20060;-74
2022/08/01 08:14:58;;;;;;;3.70;1.70;;;26.20;56.20;;;;;;5038826;28;20067;-74
2022/08/01 08:17:24;;;;;;;4.88;1.77;;;26.40;56.00;;;;;;5041896;28;20066;-73
2022/08/01 08:19:49;;;;;;;4.38;1.92;;;26.40;55.70;;;;;;5023467;28;20071;-73
2022/08/01 08:22:15;;;;;;;1.50;1.30;;;26.50;55.50;;;;;;5032749;28;20068;-75
2022/08/01 08:24:40;;;;;;;2.25;1.35;;;26.70;55.40;;;;;;5066308;28;20064;-75
2022/08/01 08:27:07;;;;;;;2.70;1.20;;;26.80;55.10;;;;;;5063223;28;20040;-73
2022/08/01 08:29:33;;;;;;;1.85;1.20;;;26.90;54.80;;;;;;5062537;28;20135;-74
2022/08/01 08:31:59;;;;;;;1.52;1.42;;;27.00;54.60;;;;;;5063530;28;20048;-73
2022/08/01 08:34:25;;;;;;;1.30;1.20;;;27.00;54.30;;;;;;5044295;28;20024;-74
2022/08/01 08:36:51;;;;;;;2.65;1.20;;;27.10;54.10;;;;;;5034064;28;20062;-75
2022/08/01 08:39:16;;;;;;;1.40;0.90;;;27.30;53.90;;;;;;5047226;28;20131;-73
2022/08/01 08:41:42;;;;;;;2.53;1.45;;;27.50;53.60;;;;;;5011963;28;20032;-74
2022/08/01 08:44:08;;;;;;;1.25;1.15;;;27.70;53.40;;;;;;5017817;28;20033;-73
2022/08/01 08:46:34;;;;;;;3.33;0.90;;;27.90;53.10;;;;;;5044433;28;20036;-73
2022/08/01 08:49:03;;;;;;;1.77;1.10;;;28.10;52.60;;;;;;5040348;28;21244;-73
2022/08/01 08:51:30;;;;;;;1.33;1.13;;;28.40;52.30;;;;;;5036377;28;20056;-73
2022/08/01 08:53:56;;;;;;;2.10;0.93;;;28.50;51.90;;;;;;5064026;28;20071;-73
2022/08/01 08:56:22;;;;;;;1.77;1.13;;;28.70;51.30;;;;;;5023384;28;20109;-73
2022/08/01 08:58:48;;;;;;;0.95;0.90;;;28.80;51.10;;;;;;5044389;28;20063;-75
2022/08/01 09:01:13;;;;;;;2.30;1.00;;;28.90;50.80;;;;;;5044348;28;21697;-74
2022/08/01 09:03:40;;;;;;;2.40;0.90;;;28.90;50.70;;;;;;5057841;28;20032;-74
2022/08/01 09:06:05;;;;;;;0.93;0.90;;;28.90;50.60;;;;;;5015215;28;20037;-73
2022/08/01 09:08:32;;;;;;;6.85;1.17;;;28.90;50.50;;;;;;5017041;28;20112;-74
2022/08/01 09:10:57;;;;;;;2.58;1.13;;;28.90;50.40;;;;;;5050745;28;20039;-73
2022/08/01 09:13:23;;;;;;;1.85;1.30;;;29.00;50.40;;;;;;5032318;28;20045;-73
2022/08/01 09:15:53;;;;;;;1.98;0.82;;;29.10;50.20;;;;;;5033542;28;20037;-74
2022/08/01 09:18:43;;;;;;;3.15;1.17;;;29.30;49.70;;;;;;5024839;28;20520;-74
2022/08/01 09:21:09;;;;;;;2.05;1.00;;;29.50;49.00;;;;;;5007587;28;20051;-73
2022/08/01 09:23:42;;;;;;;1.23;1.00;;;29.70;49.20;;;;;;5054805;28;20119;-74
2022/08/01 09:26:08;;;;;;;1.00;0.93;;;29.80;48.60;;;;;;5041648;28;20036;-73
2022/08/01 09:28:34;;;;;;;1.00;0.90;;;30.10;48.50;;;;;;5012991;28;20045;-73
2022/08/01 09:31:21;;;;;;;2.65;1.00;;;30.10;48.00;;;;;;5030514;28;20097;-73
2022/08/01 09:33:51;;;;;;;0.88;0.88;;;30.10;47.70;;;;;;5040566;28;20063;-74
2022/08/01 09:36:17;;;;;;;1.17;1.02;;;30.20;47.60;;;;;;5024985;28;20111;-74
2022/08/01 09:38:43;;;;;;;2.13;1.13;;;30.10;47.40;;;;;;5028028;28;20167;-74
2022/08/01 09:41:08;;;;;;;1.20;1.10;;;30.00;47.30;;;;;;5015772;28;20538;-73
2022/08/01 09:43:34;;;;;;;1.55;1.25;;;30.00;48.10;;;;;;5012335;28;20600;-73
2022/08/01 09:46:04;;;;;;;1.10;1.00;;;30.10;47.50;;;;;;5049662;28;20039;-74
2022/08/01 09:48:29;;;;;;;1.27;0.93;;;30.10;47.30;;;;;;5037380;28;20025;-75
2022/08/01 09:50:55;;;;;;;2.85;1.10;;;30.10;47.10;;;;;;5015675;28;20052;-73
2022/08/01 09:53:21;;;;;;;1.40;1.05;;;30.10;47.00;;;;;;5020921;28;20049;-74
2022/08/01 09:55:46;;;;;;;1.10;0.90;;;30.20;46.80;;;;;;5051049;28;20620;-74
2022/08/01 09:58:12;;;;;;;1.67;1.00;;;30.30;46.60;;;;;;5038962;28;20123;-74
2022/08/01 10:00:38;;;;;;;1.35;1.15;;;30.40;46.40;;;;;;5054544;28;20503;-75
2022/08/01 10:03:24;;;;;;;0.80;0.80;;;30.40;46.20;;;;;;5042891;28;20044;-75
2022/08/01 10:05:51;;;;;;;3.42;1.10;;;30.40;45.40;;;;;;5061429;28;20736;-71
2022/08/01 10:08:17;;;;;;;1.02;1.00;;;30.40;45.80;;;;;;5045017;28;20127;-72
2022/08/01 10:10:43;;;;;;;1.88;1.10;;;30.50;45.80;;;;;;5035499;28;20089;-72
2022/08/01 10:13:09;;;;;;;2.45;1.20;;;30.70;45.80;;;;;;5027909;28;20040;-71
2022/08/01 10:15:34;;;;;;;1.17;1.08;;;30.80;45.40;;;;;;5071840;28;20037;-75
2022/08/01 10:18:01;;;;;;;1.50;0.95;;;30.90;45.20;;;;;;5044330;28;20111;-75
2022/08/01 10:20:28;;;;;;;1.55;1.20;;;31.00;45.10;;;;;;5024303;28;20046;-74
2022/08/01 10:22:54;;;;;;;1.98;0.90;;;31.10;45.00;;;;;;5031667;28;20033;-73
2022/08/01 10:25:20;;;;;;;1.55;1.05;;;31.30;44.60;;;;;;5031174;28;20487;-71
2022/08/01 10:27:47;;;;;;;1.10;1.00;;;31.40;44.20;;;;;;5030757;28;20113;-75
2022/08/01 10:30:12;;;;;;;1.13;0.80;;;31.40;44.00;;;;;;5046636;28;20090;-74
2022/08/01 10:32:38;;;;;;;0.68;0.68;;;31.50;43.90;;;;;;5044872;28;20060;-75
2022/08/01 10:35:04;;;;;;;1.40;0.90;;;31.50;44.60;;;;;;5052157;28;20120;-72
2022/08/01 10:37:30;;;;;;;1.52;0.90;;;31.60;43.70;;;;;;5042869;28;20059;-72
2022/08/01 10:39:55;;;;;;;1.02;0.93;;;31.70;43.60;;;;;;5041567;28;20552;-72
2022/08/01 10:42:21;;;;;;;1.85;1.00;;;31.80;43.40;;;;;;5052254;28;20043;-72
2022/08/01 10:44:47;;;;;;;1.10;0.95;;;31.90;43.20;;;;;;5040089;28;20029;-72
2022/08/01 10:47:20;;;;;;;1.27;1.00;;;31.90;43.00;;;;;;5059201;28;20065;-72
2022/08/01 10:50:28;;;;;;;2.70;0.85;;;32.10;42.90;;;;;;5026387;28;20616;-73
2022/08/01 10:53:21;;;;;;;2.40;0.98;;;32.30;42.20;;;;;;5021114;28;20047;-72
2022/08/01 10:56:07;;;;;;;1.50;0.77;;;32.40;41.60;;;;;;5008488;28;20091;-72
2022/08/01 10:58:37;;;;;;;3.22;0.80;;;32.50;41.40;;;;;;5052229;28;20032;-72
2022/08/01 11:01:14;;;;;;;1.63;0.63;;;32.60;41.90;;;;;;5031871;28;20059;-73
2022/08/01 11:03:40;;;;;;;0.57;0.57;;;32.70;41.00;;;;;;5065225;28;20683;-72
2022/08/01 11:06:06;;;;;;;0.75;0.65;;;32.80;41.30;;;;;;5067446;28;20040;-72
2022/08/01 11:08:32;;;;;;;0.77;0.60;;;32.90;40.90;;;;;;5079900;28;20029;-73
2022/08/01 11:11:01;;;;;;;0.70;0.70;;;33.00;40.90;;;;;;5018344;28;20067;-72
2022/08/01 11:13:57;;;;;;;2.17;0.80;;;33.10;40.70;;;;;;5037796;28;20115;-72
2022/08/01 11:16:33;;;;;;;4.15;1.55;;;33.20;39.90;;;;;;5066708;28;20028;-72
2022/08/01 11:18:58;;;;;;;2.20;1.40;;;33.30;40.30;;;;;;5029502;28;20036;-72
2022/08/01 11:21:51;;;;;;;3.30;2.17;;;33.30;40.20;;;;;;5063336;28;20039;-73
2022/08/01 11:24:46;;;;;;;1.88;1.38;;;33.30;39.30;;;;;;5054843;28;20120;-72
2022/08/01 11:27:21;;;;;;;1.90;0.93;;;33.30;39.30;;;;;;5013971;28;20672;-72
2022/08/01 11:30:08;;;;;;;2.00;1.00;;;33.20;39.30;;;;;;5021240;28;20119;-73
2022/08/01 11:32:54;;;;;;;0.93;0.77;;;33.30;38.70;;;;;;5042545;28;20725;-73
2022/08/01 11:35:20;;;;;;;1.10;1.00;;;33.30;38.80;;;;;;5023631;28;20051;-72
2022/08/01 11:37:47;;;;;;;1.10;1.00;;;33.40;39.30;;;;;;5015710;28;20516;-74
2022/08/01 11:40:20;;;;;;;0.90;0.90;;;33.40;39.20;;;;;;5009820;28;20074;-73
2022/08/01 11:42:49;;;;;;;0.80;0.80;;;33.60;38.90;;;;;;5042089;28;20032;-72
2022/08/01 11:45:15;;;;;;;1.00;0.88;;;33.80;38.90;;;;;;5031868;28;20162;-72
2022/08/01 11:47:49;;;;;;;2.55;0.90;;;33.90;38.80;;;;;;5042600;28;20116;-72
2022/08/01 11:50:41;;;;;;;1.70;1.10;;;33.90;38.40;;;;;;5031711;28;20578;-73
2022/08/01 11:53:07;;;;;;;1.20;0.90;;;34.00;38.00;;;;;;5028531;28;20045;-73
2022/08/01 11:55:34;;;;;;;1.00;0.90;;;34.00;38.20;;;;;;5064938;28;20067;-72
2022/08/01 11:58:06;;;;;;;2.60;1.10;;;34.00;38.00;;;;;;5036476;28;20040;-73
2022/08/01 12:00:32;;;;;;;2.08;1.10;;;34.00;37.50;;;;;;5051232;28;20039;-73
2022/08/01 12:02:59;;;;;;;1.25;1.15;;;33.90;37.70;;;;;;5023119;28;20036;-72
2022/08/01 12:05:25;;;;;;;0.98;0.93;;;33.90;37.60;;;;;;5041778;28;20675;-74
2022/08/01 12:07:51;;;;;;;2.33;1.00;;;34.00;37.70;;;;;;5009981;28;20041;-73
2022/08/01 12:10:18;;;;;;;1.30;1.20;;;34.00;37.60;;;;;;5046475;28;20039;-72
2022/08/01 12:12:53;;;;;;;0.90;0.90;;;34.00;37.40;;;;;;5039279;28;20059;-72
2022/08/01 12:15:20;;;;;;;2.95;1.10;;;34.00;37.20;;;;;;5025419;28;20095;-72
2022/08/01 12:17:47;;;;;;;1.05;0.95;;;34.00;37.20;;;;;;5035023;28;20119;-73
2022/08/01 12:20:19;;;;;;;1.48;0.98;;;34.00;37.30;;;;;;5035603;28;20094;-73
2022/08/01 12:22:44;;;;;;;2.50;1.00;;;33.90;37.10;;;;;;5015661;28;20130;-72
2022/08/01 12:25:11;;;;;;;1.58;1.00;;;33.90;37.20;;;;;;5048705;28;20032;-72
2022/08/01 12:27:38;;;;;;;4.38;1.08;;;33.90;37.20;;;;;;5040838;28;20045;-73
2022/08/01 12:30:08;;;;;;;2.80;1.17;;;33.80;37.00;;;;;;5015636;28;20692;-73
2022/08/01 12:32:36;;;;;;;1.05;0.98;;;33.70;36.90;;;;;;5028831;28;20025;-73
2022/08/01 12:35:13;;;;;;;1.25;1.10;;;33.70;37.00;;;;;;5046183;28;20033;-73
2022/08/01 12:37:46;;;;;;;1.40;0.90;;;33.70;36.50;;;;;;5036489;28;20033;-72
2022/08/01 12:40:16;;;;;;;1.00;0.90;;;33.80;36.80;;;;;;5038046;28;20527;-72
2022/08/01 12:42:43;;;;;;;1.00;0.73;;;33.90;36.70;;;;;;5026893;28;20032;-72
2022/08/01 12:45:09;;;;;;;0.80;0.80;;;33.90;36.40;;;;;;5040304;28;20044;-72
2022/08/01 12:47:37;;;;;;;1.23;1.00;;;33.90;36.20;;;;;;5057134;28;20095;-72
2022/08/01 12:50:03;;;;;;;0.82;0.82;;;33.90;36.10;;;;;;5041202;28;20072;-73